Time;durP1;ratioP1;P1;durP2;ratioP2;P2;SDS_P1;SDS_P2;PMS_P1;PMS_P2;Temp;Humidity;BMP_temperature;BMP_pressure;BME280_temperature;BME280_humidity;BME280_pressure;Samples;Min_cycle;Max_cycle;Signal;HPM_P1;HPM_P2
2023/07/14 00:01:04;;;;;;;3.00;1.70;;;;;;;19.79;51.60;99411.19;7257298;40;20871;31
2023/07/14 00:06:25;;;;;;;4.83;1.50;;;;;;;19.84;50.14;99406.94;7283139;39;20880;31
2023/07/14 00:11:46;;;;;;;5.75;1.80;;;;;;;19.79;50.58;99408.44;7272298;39;20377;31
2023/07/14 00:17:25;;;;;;;3.10;1.55;;;;;;;19.69;51.62;99399.91;7279133;40;20702;31
2023/07/14 00:22:45;;;;;;;3.97;1.90;;;;;;;19.71;49.90;99388.72;7327169;39;20260;31
2023/07/14 00:28:23;;;;;;;5.17;1.90;;;;;;;19.58;51.62;99392.38;7310761;39;20716;31
2023/07/14 00:33:57;;;;;;;2.60;1.60;;;;;;;19.55;51.44;99390.09;7322284;39;20555;31
2023/07/14 00:39:17;;;;;;;3.60;1.50;;;;;;;19.52;51.02;99392.44;7233601;40;20238;31
2023/07/14 00:44:38;;;;;;;2.30;1.80;;;;;;;19.34;51.54;99382.19;7271234;40;20692;31
2023/07/14 00:50:14;;;;;;;3.17;1.70;;;;;;;19.22;52.11;99375.72;7250565;40;20551;31
2023/07/14 00:55:58;;;;;;;5.60;1.73;;;;;;;19.28;51.72;99374.88;7255058;39;20782;31
2023/07/14 01:01:33;;;;;;;4.73;1.73;;;;;;;19.31;51.20;99374.41;7320171;39;20640;31
2023/07/14 01:07:09;;;;;;;3.27;1.77;;;;;;;19.35;51.71;99370.19;7280021;40;20568;31
2023/07/14 01:12:40;;;;;;;5.40;1.80;;;;;;;18.88;53.34;99364.12;7284852;39;20248;31
2023/07/14 01:18:13;;;;;;;4.30;1.70;;;;;;;18.60;53.86;99371.78;7296870;39;20259;31
2023/07/14 01:23:54;;;;;;;4.50;1.80;;;;;;;18.56;53.83;99365.03;7292021;39;20257;31
2023/07/14 01:29:30;;;;;;;3.13;1.70;;;;;;;18.23;55.27;99365.09;7236681;40;20801;31
2023/07/14 01:35:05;;;;;;;3.60;1.80;;;;;;;17.99;55.99;99366.56;7226533;40;20743;31
2023/07/14 01:40:41;;;;;;;2.90;1.70;;;;;;;17.94;56.21;99369.09;7271085;40;20287;31
2023/07/14 01:51:21;;;;;;;3.30;1.90;;;;;;;18.01;56.09;99355.44;7243709;40;20269;31
2023/07/14 02:08:02;;;;;;;3.23;1.90;;;;;;;18.08;55.93;99352.72;7382271;39;20379;31
2023/07/14 02:13:34;;;;;;;4.13;1.87;;;;;;;17.99;55.87;99355.66;7328573;39;20261;31
2023/07/14 02:19:22;;;;;;;5.77;2.00;;;;;;;17.75;57.42;99345.37;7294332;39;20276;31
2023/07/14 02:29:58;;;;;;;3.60;1.80;;;;;;;18.02;55.33;99335.31;7326418;39;20263;31
2023/07/14 02:35:30;;;;;;;3.50;2.00;;;;;;;18.26;54.70;99331.06;7279805;40;20853;31
2023/07/14 02:46:08;;;;;;;3.62;1.90;;;;;;;18.15;55.16;99323.53;7300246;39;20376;31
2023/07/14 02:56:46;;;;;;;2.75;1.77;;;;;;;17.99;55.67;99331.09;7360109;39;20421;31
2023/07/14 03:07:22;;;;;;;5.00;2.30;;;;;;;17.97;55.67;99319.56;7246596;40;20269;31
2023/07/14 03:12:44;;;;;;;4.60;2.23;;;;;;;17.85;55.96;99323.16;7259219;40;20727;31
2023/07/14 03:18:18;;;;;;;5.83;2.30;;;;;;;17.78;56.55;99319.56;7278989;39;20592;31
2023/07/14 03:28:59;;;;;;;5.60;2.10;;;;;;;17.83;56.36;99320.63;7243516;40;20738;31
2023/07/14 03:34:34;;;;;;;4.93;1.87;;;;;;;18.16;55.88;99306.13;7245297;40;20653;31
2023/07/14 03:39:55;;;;;;;4.60;2.00;;;;;;;18.08;56.78;99317.25;7244197;40;20712;31
2023/07/14 03:45:31;;;;;;;3.20;2.00;;;;;;;17.94;57.89;99317.28;7256904;40;20702;31
2023/07/14 03:51:05;;;;;;;3.00;1.80;;;;;;;18.03;57.38;99307.00;7228248;40;20894;31
2023/07/14 03:56:42;;;;;;;5.40;1.80;;;;;;;18.29;56.46;99295.19;7164586;40;20714;31
2023/07/14 04:02:17;;;;;;;4.50;1.70;;;;;;;18.45;56.79;99305.63;7159874;40;20987;31
2023/07/14 04:07:51;;;;;;;4.30;1.90;;;;;;;18.50;56.37;99297.63;7157506;40;20782;31
2023/07/14 04:13:12;;;;;;;2.90;2.00;;;;;;;18.28;57.68;99296.22;7179241;40;20539;31
2023/07/14 04:18:48;;;;;;;6.00;1.95;;;;;;;18.40;57.73;99299.97;7197949;40;20827;31
2023/07/14 04:29:13;;;;;;;3.96;2.26;;;;;;;18.76;56.33;99291.25;7319013;39;20264;31
2023/07/14 04:34:50;;;;;;;6.37;2.30;;;;;;;18.71;56.72;99300.09;7315720;39;20589;31
2023/07/14 04:40:24;;;;;;;4.07;2.23;;;;;;;18.59;57.61;99292.81;7290626;40;20749;31
2023/07/14 04:45:58;;;;;;;4.70;2.10;;;;;;;18.44;58.22;99295.75;7298918;39;20263;31
2023/07/14 04:51:33;;;;;;;3.45;1.70;;;;;;;18.40;58.02;99302.69;7277686;39;20775;31
2023/07/14 04:57:08;;;;;;;4.60;2.20;;;;;;;18.29;58.60;99297.91;7261733;40;20451;31
2023/07/14 05:02:28;;;;;;;4.63;2.20;;;;;;;18.28;58.80;99288.88;7218355;40;20242;31
2023/07/14 05:08:05;;;;;;;4.05;1.90;;;;;;;18.26;58.62;99290.13;7185858;40;20601;31
2023/07/14 05:13:37;;;;;;;4.53;2.00;;;;;;;18.38;57.54;99277.53;7219228;40;20468;31
2023/07/14 05:19:09;;;;;;;3.50;1.83;;;;;;;18.37;57.96;99279.41;7287386;39;20933;31
2023/07/14 05:24:42;;;;;;;5.67;1.90;;;;;;;18.55;57.27;99275.19;7236462;40;20304;31
2023/07/14 05:29:59;;;;;;;3.70;1.60;;;;;;;18.81;56.90;99275.91;7288399;39;20537;31
2023/07/14 05:35:34;;;;;;;2.85;1.50;;;;;;;19.01;57.24;99255.81;7283358;40;20365;31
2023/07/14 05:41:10;;;;;;;3.95;1.80;;;;;;;19.19;56.37;99247.72;7268977;39;20378;31
2023/07/14 05:46:30;;;;;;;2.87;1.80;;;;;;;19.37;55.94;99250.53;7232105;40;20835;31
2023/07/14 05:52:09;;;;;;;2.53;1.70;;;;;;;19.45;57.17;99255.75;7236974;40;20336;31
2023/07/14 05:57:43;;;;;;;3.57;1.70;;;;;;;19.60;57.14;99242.59;7250551;40;20649;31
2023/07/14 06:03:18;;;;;;;4.37;1.80;;;;;;;19.72;57.44;99245.44;7294705;39;20306;31
2023/07/14 06:08:39;;;;;;;4.63;2.00;;;;;;;19.85;55.59;99242.56;7301664;39;20322;31
2023/07/14 06:14:17;;;;;;;4.20;1.80;;;;;;;20.06;55.18;99233.09;7299724;39;20716;31
2023/07/14 06:19:34;;;;;;;7.93;1.90;;;;;;;20.32;54.39;99227.34;7123120;39;21255;31
2023/07/14 06:24:55;;;;;;;2.80;1.80;;;;;;;20.48;53.81;99240.44;7317632;39;20762;31
2023/07/14 06:30:30;;;;;;;2.73;1.70;;;;;;;20.54;53.48;99242.25;7235564;40;21996;31
2023/07/14 06:41:08;;;;;;;2.97;1.83;;;;;;;20.83;53.76;99226.94;7290099;39;20271;31
2023/07/14 06:46:44;;;;;;;7.40;2.00;;;;;;;20.99;52.32;99230.91;7305087;39;20779;31
2023/07/14 06:57:23;;;;;;;3.40;2.00;;;;;;;21.10;52.64;99238.34;7317152;39;20291;31
2023/07/14 07:08:03;;;;;;;7.26;2.10;;;;;;;21.24;52.72;99228.06;7311672;39;20295;31
2023/07/14 07:18:42;;;;;;;6.10;2.08;;;;;;;21.70;53.20;99210.81;7302884;39;20264;31
2023/07/14 07:29:21;;;;;;;6.94;2.40;;;;;;;22.10;51.64;99214.53;7312073;39;20252;31
2023/07/14 07:40:01;;;;;;;8.22;2.26;;;;;;;22.37;50.55;99207.44;7294251;39;20333;31
2023/07/14 07:45:34;;;;;;;4.40;2.10;;;;;;;22.60;50.27;99203.78;7258774;40;20916;31
2023/07/14 07:50:55;;;;;;;2.10;1.70;;;;;;;22.69;49.84;99201.47;7319314;39;20282;31
2023/07/14 07:56:45;;;;;;;5.50;2.00;;;;;;;22.80;50.17;99195.97;7317182;39;20385;31
2023/07/14 08:07:24;;;;;;;8.57;2.00;;;;;;;23.12;47.65;99176.22;7199273;40;20270;31
2023/07/14 08:18:07;;;;;;;7.03;2.15;;;;;;;23.64;47.42;99182.34;7202150;40;20371;31
2023/07/14 08:23:44;;;;;;;5.50;2.00;;;;;;;23.96;44.51;99177.84;7243144;40;20238;31
2023/07/14 08:29:19;;;;;;;3.75;1.90;;;;;;;24.15;44.81;99179.25;7289847;39;20249;31
2023/07/14 08:34:55;;;;;;;5.65;2.50;;;;;;;24.48;43.93;99180.25;7299815;39;21388;31
2023/07/14 08:40:32;;;;;;;5.60;2.20;;;;;;;24.61;44.37;99179.84;7220443;40;20546;31
2023/07/14 08:46:06;;;;;;;5.00;2.15;;;;;;;24.74;43.73;99179.44;7239368;40;20709;31
2023/07/14 08:51:44;;;;;;;5.85;1.90;;;;;;;24.63;44.73;99172.97;7237785;40;20365;31
2023/07/14 08:57:15;;;;;;;6.90;2.20;;;;;;;24.89;43.05;99159.47;7225312;40;20254;31
2023/07/14 09:02:50;;;;;;;6.20;2.00;;;;;;;25.02;42.14;99170.94;7208168;40;20253;31
2023/07/14 09:08:25;;;;;;;4.35;2.10;;;;;;;25.12;42.34;99165.53;7224896;40;20254;31
2023/07/14 09:14:02;;;;;;;5.60;2.25;;;;;;;25.31;42.44;99167.91;7229752;40;20552;31
2023/07/14 09:19:38;;;;;;;3.35;2.08;;;;;;;25.45;41.65;99163.59;7199332;40;20242;31
2023/07/14 09:25:13;;;;;;;3.20;1.77;;;;;;;25.69;41.25;99153.03;7219594;40;21961;31
2023/07/14 09:30:49;;;;;;;5.78;2.30;;;;;;;26.02;40.76;99142.44;7217493;40;20811;31
2023/07/14 09:36:25;;;;;;;5.03;1.90;;;;;;;26.22;40.55;99127.13;7217924;40;20246;31
2023/07/14 09:42:00;;;;;;;3.45;1.70;;;;;;;26.52;38.90;99130.00;7250080;40;20648;31
2023/07/14 09:47:36;;;;;;;3.72;2.10;;;;;;;26.43;37.73;99120.56;7230627;40;20557;31
2023/07/14 09:53:11;;;;;;;7.68;1.92;;;;;;;26.42;38.46;99125.25;7226939;40;20762;31
2023/07/14 10:03:54;;;;;;;4.34;2.00;;;;;;;26.64;38.63;99126.97;7247772;40;20285;31
2023/07/14 10:09:28;;;;;;;5.15;1.95;;;;;;;26.79;37.80;99113.19;7248719;40;20297;31
2023/07/14 10:14:49;;;;;;;2.92;1.73;;;;;;;26.85;38.57;99121.22;7253544;40;20875;31
2023/07/14 10:20:36;;;;;;;4.30;1.98;;;;;;;27.29;37.36;99117.97;7215608;40;20543;31
2023/07/14 10:31:14;;;;;;;5.62;2.03;;;;;;;27.57;36.65;99106.31;7167246;40;20381;31
2023/07/14 10:36:46;;;;;;;4.75;1.73;;;;;;;27.54;36.63;99103.28;7184269;40;20549;31
2023/07/14 10:42:16;;;;;;;4.80;1.80;;;;;;;27.56;36.57;99110.19;7201815;40;20723;31
2023/07/14 10:47:48;;;;;;;2.72;1.58;;;;;;;27.53;35.56;99105.22;7216717;40;20384;31
2023/07/14 10:53:22;;;;;;;2.58;1.52;;;;;;;27.71;35.38;99095.50;7151307;40;20420;31
2023/07/14 10:58:58;;;;;;;2.67;1.48;;;;;;;27.79;35.76;99095.75;7120497;40;20259;31
2023/07/14 11:04:33;;;;;;;5.60;1.98;;;;;;;27.74;35.71;99084.69;7185147;40;20365;31
2023/07/14 11:10:08;;;;;;;6.10;2.10;;;;;;;27.74;34.89;99075.53;7198285;40;20270;31
2023/07/14 11:15:44;;;;;;;3.90;2.00;;;;;;;27.64;36.40;99073.66;7218200;40;20273;31
2023/07/14 11:21:30;;;;;;;3.05;1.85;;;;;;;27.67;35.45;99056.47;7229786;40;20617;31
2023/07/14 11:27:28;;;;;;;3.92;1.90;;;;;;;27.58;34.39;99049.84;7210710;40;20323;31
2023/07/14 11:33:00;;;;;;;2.25;1.70;;;;;;;27.45;35.05;99042.06;7246711;40;20272;31
2023/07/14 11:38:37;;;;;;;5.00;1.90;;;;;;;27.47;35.08;99028.75;7234563;40;20254;31
2023/07/14 11:44:13;;;;;;;2.35;1.75;;;;;;;27.61;35.74;99021.56;7172988;40;20365;31
2023/07/14 11:49:45;;;;;;;4.70;1.67;;;;;;;27.63;35.08;99021.28;7207291;40;20296;31
2023/07/14 12:00:30;;;;;;;6.70;1.87;;;;;;;28.47;33.11;99000.94;7238089;40;21169;31
2023/07/14 12:06:02;;;;;;;4.80;1.80;;;;;;;28.50;34.07;99005.91;7242868;40;21150;31
2023/07/14 12:11:40;;;;;;;5.90;1.85;;;;;;;28.69;32.61;98993.00;7262624;40;20265;31
2023/07/14 12:17:13;;;;;;;4.12;1.60;;;;;;;28.72;32.63;98984.12;7253557;40;20357;31
2023/07/14 12:22:53;;;;;;;3.20;1.55;;;;;;;28.78;32.47;98976.59;7263049;40;20253;31
2023/07/14 12:28:21;;;;;;;5.15;2.08;;;;;;;29.23;31.82;98978.91;7250229;40;20561;31
2023/07/14 12:33:57;;;;;;;5.15;2.20;;;;;;;29.35;32.34;98956.34;7197296;40;20281;31
2023/07/14 12:39:14;;;;;;;3.42;1.60;;;;;;;29.51;31.65;98946.72;7158308;40;20274;31
2023/07/14 12:44:44;;;;;;;3.62;2.05;;;;;;;29.32;31.66;98924.44;7207056;40;20245;31
2023/07/14 12:50:19;;;;;;;2.17;1.50;;;;;;;29.07;32.81;98899.69;7201460;40;20270;31
2023/07/14 12:55:37;;;;;;;4.90;2.00;;;;;;;29.19;31.16;98889.00;7188918;40;20261;31
2023/07/14 13:01:11;;;;;;;3.97;1.60;;;;;;;29.17;31.66;98887.66;7032558;40;20242;31
2023/07/14 13:06:46;;;;;;;3.08;1.80;;;;;;;29.31;29.77;98878.31;7192349;40;20258;31
2023/07/14 13:12:18;;;;;;;3.78;1.70;;;;;;;29.53;30.89;98870.25;7183280;40;20269;31
2023/07/14 13:17:54;;;;;;;4.60;1.60;;;;;;;29.72;30.86;98858.34;7195088;40;20317;31
2023/07/14 13:23:31;;;;;;;6.50;1.70;;;;;;;29.87;30.19;98853.44;7163617;40;20426;31
2023/07/14 13:29:09;;;;;;;2.33;1.50;;;;;;;29.95;29.76;98857.47;7185456;40;20257;31
2023/07/14 13:34:42;;;;;;;3.44;1.76;;;;;;;30.06;29.35;98856.19;7218290;40;20254;31
2023/07/14 13:40:15;;;;;;;2.80;1.60;;;;;;;29.46;29.88;98844.00;7184570;40;20364;31
2023/07/14 13:45:47;;;;;;;4.08;1.64;;;;;;;29.26;29.88;98842.28;7193107;40;20239;31
2023/07/14 13:51:20;;;;;;;4.77;1.77;;;;;;;29.14;29.15;98832.72;7191015;40;20274;31
2023/07/14 13:56:55;;;;;;;2.08;1.70;;;;;;;29.22;30.33;98829.28;7169696;40;20405;31
2023/07/14 14:02:30;;;;;;;3.05;1.90;;;;;;;28.99;30.55;98814.31;7215113;40;20269;31
2023/07/14 14:08:05;;;;;;;2.83;1.77;;;;;;;29.06;29.43;98814.75;7162396;40;20255;31
2023/07/14 14:13:39;;;;;;;5.00;1.85;;;;;;;29.02;30.34;98800.66;7135922;40;20311;31
2023/07/14 14:18:56;;;;;;;3.28;1.70;;;;;;;29.17;30.82;98805.19;7157653;40;20476;31
2023/07/14 14:24:17;;;;;;;3.55;1.87;;;;;;;29.23;31.56;98797.59;7225330;40;20299;31
2023/07/14 14:29:53;;;;;;;3.85;1.90;;;;;;;29.07;31.85;98786.72;7233466;39;20354;31
2023/07/14 14:35:36;;;;;;;5.64;1.80;;;;;;;28.75;31.42;98777.38;7252168;40;20271;31
2023/07/14 14:41:08;;;;;;;5.25;1.80;;;;;;;28.87;31.16;98773.09;7252443;40;20280;31
2023/07/14 14:46:42;;;;;;;3.17;1.70;;;;;;;29.26;32.13;98753.44;7209291;40;20282;31
2023/07/14 14:51:59;;;;;;;2.37;1.73;;;;;;;29.36;30.92;98753.28;7204880;40;20385;31
2023/07/14 14:57:31;;;;;;;2.65;1.80;;;;;;;29.57;31.28;98748.28;7206111;40;20257;31
2023/07/14 15:03:02;;;;;;;3.80;1.80;;;;;;;29.47;31.47;98737.31;7227946;40;20463;31
2023/07/14 15:08:34;;;;;;;2.90;1.77;;;;;;;29.64;32.08;98734.00;7225436;40;20365;31
2023/07/14 15:14:06;;;;;;;6.05;1.80;;;;;;;29.43;31.93;98731.53;7198778;40;20421;31
2023/07/14 15:19:40;;;;;;;3.00;1.50;;;;;;;29.36;32.07;98730.25;7178767;40;21381;31
2023/07/14 15:24:58;;;;;;;5.84;1.90;;;;;;;29.71;31.59;98717.75;7203198;40;20266;31
2023/07/14 15:30:31;;;;;;;3.30;1.87;;;;;;;29.95;31.31;98721.28;7251091;40;20280;31
2023/07/14 15:36:04;;;;;;;4.35;1.70;;;;;;;29.95;31.41;98710.16;7191113;40;20250;31
2023/07/14 15:41:37;;;;;;;4.47;2.00;;;;;;;30.10;32.20;98695.16;7228531;40;20272;31
2023/07/14 15:46:54;;;;;;;6.00;1.78;;;;;;;30.02;31.57;98691.09;7250570;40;20261;31
2023/07/14 15:52:30;;;;;;;3.20;1.90;;;;;;;29.91;32.26;98671.03;7252761;40;20347;31
2023/07/14 16:02:55;;;;;;;4.33;1.80;;;;;;;29.97;32.44;98646.75;7259634;40;20295;31
2023/07/14 16:08:29;;;;;;;3.62;1.83;;;;;;;30.01;31.65;98646.94;7264551;39;21344;31
2023/07/14 16:19:06;;;;;;;4.68;1.85;;;;;;;30.14;31.92;98613.59;7335424;39;20365;31
2023/07/14 16:24:44;;;;;;;2.80;1.70;;;;;;;30.19;31.78;98621.81;7341806;39;20306;31
2023/07/14 16:30:01;;;;;;;5.50;2.00;;;;;;;30.13;31.92;98609.16;7319173;39;20252;31
2023/07/14 16:35:33;;;;;;;5.40;1.90;;;;;;;29.95;32.91;98601.75;7257286;40;20419;31
2023/07/14 16:41:06;;;;;;;4.70;1.95;;;;;;;29.87;33.38;98600.50;7254738;40;20248;31
2023/07/14 16:46:37;;;;;;;3.88;1.56;;;;;;;29.87;32.55;98602.44;7188189;40;20343;31
2023/07/14 16:52:09;;;;;;;2.03;1.70;;;;;;;29.90;33.16;98590.72;7217948;40;20250;31
2023/07/14 16:57:42;;;;;;;3.10;1.98;;;;;;;29.65;33.90;98586.44;7212831;40;20490;31
2023/07/14 17:03:14;;;;;;;2.42;1.80;;;;;;;29.29;34.16;98583.47;7214651;40;20266;31
2023/07/14 17:08:47;;;;;;;2.30;1.80;;;;;;;29.11;32.99;98574.00;7184127;40;20281;31
2023/07/14 17:19:27;;;;;;;3.00;2.10;;;;;;;28.95;35.49;98571.78;7256889;40;20287;31
2023/07/14 17:24:59;;;;;;;4.70;1.80;;;;;;;28.95;35.03;98574.56;7257080;39;20311;31
2023/07/14 17:30:50;;;;;;;2.92;2.03;;;;;;;28.99;34.75;98581.16;7279342;40;20297;31
2023/07/14 17:41:27;;;;;;;3.80;2.22;;;;;;;28.86;34.74;98577.19;7219306;40;20272;31
2023/07/14 17:52:01;;;;;;;4.40;2.10;;;;;;;28.83;36.19;98576.97;7227083;40;20317;31
2023/07/14 17:57:34;;;;;;;4.10;2.00;;;;;;;28.72;34.83;98569.91;7270765;40;20466;31
2023/07/14 18:08:11;;;;;;;3.17;1.95;;;;;;;28.65;35.56;98562.75;7231718;40;21154;31
2023/07/14 18:18:49;;;;;;;4.30;1.90;;;;;;;28.60;36.92;98550.91;7198441;40;20691;31
2023/07/14 18:24:06;;;;;;;3.62;1.82;;;;;;;28.57;36.79;98549.56;7212126;40;20448;31
2023/07/14 18:29:41;;;;;;;3.77;2.17;;;;;;;28.53;36.83;98547.69;7284525;40;20251;31
2023/07/14 18:35:14;;;;;;;2.35;2.00;;;;;;;28.47;36.28;98546.13;7257344;40;20264;31
2023/07/14 18:41:01;;;;;;;3.73;1.80;;;;;;;28.39;37.65;98539.28;7211350;40;20296;31
2023/07/14 18:51:38;;;;;;;12.05;2.42;;;;;;;27.97;39.53;98536.47;7160470;40;20475;31
2023/07/14 18:56:55;;;;;;;4.10;2.10;;;;;;;27.77;40.16;98530.09;7202615;40;20265;31
2023/07/14 19:02:36;;;;;;;5.05;2.40;;;;;;;27.56;42.28;98539.72;7211854;40;20364;31
2023/07/14 19:08:11;;;;;;;7.45;2.10;;;;;;;27.49;42.30;98530.09;7290392;39;20293;31
2023/07/14 19:13:43;;;;;;;4.63;2.27;;;;;;;27.26;42.05;98539.97;7246465;40;20451;31
2023/07/14 19:19:15;;;;;;;4.14;2.02;;;;;;;27.18;42.59;98535.91;7196465;40;20270;31
2023/07/14 19:24:48;;;;;;;5.12;2.08;;;;;;;27.11;42.42;98537.37;7183562;40;20277;31
2023/07/14 19:30:21;;;;;;;3.47;2.10;;;;;;;27.02;42.94;98542.69;7162387;40;20278;31
2023/07/14 19:35:50;;;;;;;4.15;2.05;;;;;;;26.92;42.33;98541.94;7185169;40;20266;31
2023/07/14 19:41:22;;;;;;;3.40;2.30;;;;;;;26.71;43.11;98547.59;7151700;40;20281;31
2023/07/14 19:46:54;;;;;;;5.10;2.70;;;;;;;26.64;43.37;98546.25;7059089;40;20255;31
2023/07/14 19:52:29;;;;;;;4.78;2.80;;;;;;;26.36;44.60;98545.06;7252542;39;20273;31
2023/07/14 19:58:03;;;;;;;6.75;2.58;;;;;;;26.30;43.81;98541.50;7212110;40;20345;31
2023/07/14 20:03:36;;;;;;;5.93;2.97;;;;;;;26.28;44.26;98542.91;7214432;40;20363;31
2023/07/14 20:09:08;;;;;;;5.22;2.33;;;;;;;26.26;44.22;98553.41;7161608;40;20275;31
2023/07/14 20:19:45;;;;;;;6.30;2.40;;;;;;;26.12;44.34;98563.38;7192307;40;21517;31
2023/07/14 20:25:17;;;;;;;3.87;2.30;;;;;;;26.06;44.50;98565.34;7248421;40;20343;31
2023/07/14 20:30:51;;;;;;;5.05;2.30;;;;;;;25.95;45.79;98567.31;7238883;40;20268;31
2023/07/14 20:36:24;;;;;;;5.97;2.10;;;;;;;25.72;45.45;98570.69;7197432;40;20441;31
2023/07/14 20:41:59;;;;;;;6.50;2.20;;;;;;;25.50;45.80;98559.09;7179742;40;20258;31
2023/07/14 20:47:31;;;;;;;5.32;2.60;;;;;;;25.50;45.56;98575.66;7173446;40;20266;31
2023/07/14 20:53:04;;;;;;;3.00;2.52;;;;;;;25.43;46.02;98575.97;7203590;40;20274;31
2023/07/14 21:03:41;;;;;;;4.15;2.20;;;;;;;25.14;46.83;98572.16;7227940;40;21224;31
2023/07/14 21:09:17;;;;;;;4.03;2.33;;;;;;;24.98;47.31;98571.28;7215740;40;20265;31
2023/07/14 21:14:34;;;;;;;4.32;2.12;;;;;;;24.94;46.45;98572.94;7190270;40;20263;31
2023/07/14 21:19:55;;;;;;;5.30;2.43;;;;;;;24.77;46.46;98580.63;7217313;40;20259;31
2023/07/14 21:25:30;;;;;;;4.07;2.42;;;;;;;24.64;47.69;98578.41;7239791;40;20249;31
2023/07/14 21:31:05;;;;;;;4.07;2.20;;;;;;;24.57;47.61;98572.31;7263191;40;20327;31
2023/07/14 21:36:40;;;;;;;4.75;2.75;;;;;;;24.53;47.72;98571.19;7285814;40;20265;31
2023/07/14 21:42:16;;;;;;;5.25;2.80;;;;;;;24.48;47.83;98576.72;7217326;40;20253;31
2023/07/14 21:47:36;;;;;;;8.06;2.28;;;;;;;24.42;46.86;98575.03;7184830;40;20269;31
2023/07/14 21:53:11;;;;;;;3.80;2.33;;;;;;;24.30;46.99;98567.03;7198014;40;20262;31
2023/07/14 21:58:47;;;;;;;2.60;2.10;;;;;;;24.18;48.09;98558.97;7162233;40;20358;31
2023/07/14 22:04:17;;;;;;;3.33;2.20;;;;;;;24.17;47.45;98556.50;7189667;40;20331;31
2023/07/14 22:09:52;;;;;;;3.12;2.40;;;;;;;24.13;47.20;98567.19;7152816;40;20274;31
2023/07/14 22:15:37;;;;;;;3.26;2.18;;;;;;;23.96;48.28;98563.81;7146423;40;20303;31
2023/07/14 22:21:12;;;;;;;3.70;2.10;;;;;;;23.97;47.62;98561.88;7168631;40;20259;31
2023/07/14 22:26:44;;;;;;;4.70;2.12;;;;;;;23.99;47.50;98559.72;7155443;40;20286;31
2023/07/14 22:32:23;;;;;;;2.52;2.08;;;;;;;24.00;47.92;98553.91;7186084;40;20351;31
2023/07/14 22:37:56;;;;;;;3.80;2.20;;;;;;;23.95;49.00;98555.84;7185283;40;20266;31
2023/07/14 22:43:31;;;;;;;7.12;2.78;;;;;;;23.89;49.30;98549.47;7171978;40;20353;31
2023/07/14 22:49:07;;;;;;;3.60;2.50;;;;;;;23.78;48.61;98553.28;7148423;40;20267;31
2023/07/14 22:54:25;;;;;;;3.53;2.50;;;;;;;23.82;48.35;98554.41;7158002;40;20299;31
2023/07/14 23:05:02;;;;;;;3.50;2.53;;;;;;;24.04;49.18;98562.47;7225958;40;21376;31
2023/07/14 23:10:37;;;;;;;2.60;2.40;;;;;;;24.04;47.92;98556.97;7268150;39;20271;31
2023/07/14 23:21:16;;;;;;;3.10;2.42;;;;;;;23.88;48.54;98552.47;7232102;40;20318;31
2023/07/14 23:31:53;;;;;;;6.03;2.62;;;;;;;23.72;48.94;98552.44;7271993;39;21222;31
2023/07/14 23:42:28;;;;;;;2.90;2.00;;;;;;;23.58;50.37;98547.66;7277893;39;21213;31
2023/07/14 23:47:59;;;;;;;3.60;2.30;;;;;;;23.64;49.90;98544.69;7192299;40;20260;31
2023/07/14 23:58:38;;;;;;;4.75;2.60;;;;;;;23.60;50.29;98540.81;7181035;40;21171;31
